Menomonie, Wisconsin
Current Conditions -  °F | °C
As of 6:55 AM on Friday 19 Dec 2014 (Local Time) from KLUM Reporting Station
Overcast Overcast  
Wind Chill: 24°   Ceiling: 9500
Heat Index: 24°   Visibility: 10mi
Dew Point: 19°   Wind: 3mph
Humidity: 81%   Direction: 170°S
Pressure: 30.27"   Gusts: NA
Location:  44.88°N, 91.93°W
Report Text: KLUM 191255Z AUTO 17003KT 10SM SCT014 OVC095 M05/M07 A3027 RMK AO2 T10471075
Loading
Personal Weather Stations






























Interactive Weather Map New forecast layout! Learn more

10-Day Weather Forecast

Advertisements
Track Severe Weather on mobile